METAR Reports

Area Airport Weather Conditions

KBDL - Windsor Locks, Connecticut, USA
Distance from station: NE 45mi, 72km
Updated: 11:51AM EST, February 27, 2024
Few Clouds
Few Clouds
 Wind from S
Wind: S 5 mph , 7 km/h
Temperature: 52°F , 11°C
Dew Point: 37°F , 3°C
Humidity: 58%
Barometer: 30.03 inHg , 1016.9 hPa
Clouds: Few Clouds
Visibility: 10 miles , 16 km
Cloud details: Few Clouds 25000 ft
2024/02/27 16:51 KBDL 271651Z 17004KT 10SM FEW250 11/03 A3003 RMK AO2 SLP169 T01060028
KDXR - Danbury, Connecticut, USA
Distance from station: SSW 15mi, 24km
Updated: 11:53AM EST, February 27, 2024
Clear
Clear
 Wind from SSE
Wind: SSE 12 mph , 19 km/h
Temperature: 52°F , 11°C
Dew Point: 43°F , 6°C
Humidity: 72%
Barometer: 30.00 inHg , 1015.9 hPa
Clouds: Clear
Visibility: 10 miles , 16 km
2024/02/27 16:53 KDXR 271653Z 15010KT 10SM CLR 11/06 A3000 RMK AO2 SLP162 T01060056
 
KOXC - Oxford/Waterbury, Connecticut, USA
Distance from station: ESE 16mi, 26km
Updated: 11:51AM EST, February 27, 2024
Few Clouds
Few Clouds
 Wind from SSE
Wind: SSE 9 mph , 15 km/h
Temperature: 48°F , 9°C
Wind Chill: 44°F , 7°C
Dew Point: 45°F , 7°C
Humidity: 87%
Barometer: 30.01 inHg , 1016.3 hPa
Clouds: Few Clouds
Visibility: 10 miles , 16 km
Cloud details: Few Clouds 1200 ft
2024/02/27 16:51 KOXC 271651Z 15008KT 10SM FEW012 09/07 A3001 RMK AO2 SLP181 T00940067
KPOU - Poughkeepsie, New York, USA
Distance from station: W 25mi, 40km
Updated: 11:53AM EST, February 27, 2024
Clear
Clear
 Wind from SE
Wind: SE 9 mph , 15 km/h
Temperature: 57°F , 14°C
Dew Point: 41°F , 5°C
Humidity: 55%
Barometer: 29.95 inHg , 1014.2 hPa
Clouds: Clear
Visibility: 10 miles , 16 km
2024/02/27 16:53 KPOU 271653Z 13008KT 10SM CLR 14/05 A2995 RMK AO2 SLP140 T01390050
 
KMMK - Meriden, Connecticut, USA
Distance from station: E 30mi, 48km
Updated: 11:53AM EST, February 27, 2024
Clear
Clear
 Wind from NNW
Wind: NNW 3 mph , 6 km/h
Temperature: 54°F , 12°C
Dew Point: 39°F , 4°C
Humidity: 58%
Barometer: 30.02 inHg , 1016.6 hPa
Clouds: Clear
Visibility: 10 miles , 16 km
2024/02/27 16:53 KMMK 271653Z AUTO 33003KT 10SM CLR 12/04 A3002 RMK AO2 SLP165 T01170039
KBDR - Bridgeport, Connecticut, USA
Distance from station: SSE 32mi, 51km
Updated: 11:52AM EST, February 27, 2024
Fog, Overcast
Fog, Overcast
 Wind from ENE
Wind: ENE 15 mph , 24 km/h
Temperature: 41°F , 5°C
Wind Chill: 33°F , 1°C
Dew Point: 39°F , 4°C
Humidity: 93%
Barometer: 30.02 inHg , 1016.6 hPa
Summary: Fog
Clouds: Overcast
Visibility: 1/4 mile , 0.4 km
Cloud details: Overcast 200 ft
2024/02/27 16:52 KBDR 271652Z 07013KT 1/4SM FG VV002 05/04 A3002 RMK AO2 SLP167 T00500044
 
KHVN - New Haven/Tweed, Connecticut, USA
Distance from station: SE 35mi, 57km
Updated: 11:53AM EST, February 27, 2024
Clear
Clear
 Wind from ESE
Wind: ESE 12 mph , 19 km/h
Temperature: 54°F , 12°C
Dew Point: 45°F , 7°C
Humidity: 72%
Barometer: 30.02 inHg , 1016.6 hPa
Clouds: Clear
Visibility: 9 miles , 14 km
2024/02/27 16:53 KHVN 271653Z 11010KT 9SM CLR 12/07 A3002 RMK AO2 SLP164 T01170072
KSWF - Newburgh/Stewart, New York, USA
Distance from station: W 35mi, 57km
Updated: 11:45AM EST, February 27, 2024
Clear
Clear
 Wind from SE
Wind: SE 12 mph , 19 km/h
Temperature: 54°F , 12°C
Dew Point: 41°F , 5°C
Humidity: 63%
Barometer: 29.95 inHg , 1014.2 hPa
Clouds: Clear
Visibility: 10 miles , 16 km
2024/02/27 16:45 KSWF 271645Z 13010KT 10SM SKC 12/05 A2995
 
KHPN - White Plains, New York, USA
Distance from station: SSW 38mi, 62km
Updated: 11:56AM EST, February 27, 2024
Mist, Partly cloudy
Mist, Partly cloudy
 Wind from ESE
Wind: ESE 8 mph , 13 km/h
Temperature: 46°F , 8°C
Wind Chill: 42°F , 6°C
Dew Point: 41°F , 5°C
Humidity: 82%
Barometer: 29.99 inHg , 1015.6 hPa
Summary: Mist
Clouds: Partly cloudy
Visibility: 3 miles , 5 km
Cloud details: Partly cloudy 200 ft
2024/02/27 16:56 KHPN 271656Z 12007KT 3SM BR SCT002 08/05 A2999 RMK AO2 SLP160 T00830050
KHFD - Hartford/Brainar, Connecticut, USA
Distance from station: ENE 41mi, 65km
Updated: 11:53AM EST, February 27, 2024
Clear
Clear
 Wind from varies
Wind: varies 3 mph , 6 km/h
Temperature: 52°F , 11°C
Dew Point: 39°F , 4°C
Humidity: 62%
Barometer: 30.02 inHg , 1016.6 hPa
Clouds: Clear
Visibility: 10 miles , 16 km
2024/02/27 16:53 KHFD 271653Z VRB03KT 10SM CLR 11/04 A3002 RMK AO2 SLP167 T01110039